Time;durP1;ratioP1;P1;durP2;ratioP2;P2;SDS_P1;SDS_P2;PMS_P1;PMS_P2;Temp;Humidity;BMP_temperature;BMP_pressure;BME280_temperature;BME280_humidity;BME280_pressure;Samples;Min_cycle;Max_cycle;Signal;HPM_P1;HPM_P2
2021/01/04 00:00:48;;;;;;;2.55;0.85;;;;;;;;;;5027620;28;20061;-54
2021/01/04 00:03:20;;;;;;;2.83;0.60;;;;;;;;;;5019542;28;20033;-54
2021/01/04 00:05:50;;;;;;;1.00;0.40;;;;;;;;;;5019481;28;20045;-54
2021/01/04 00:08:16;;;;;;;1.92;0.52;;;;;;;;;;5019794;28;20053;-54
2021/01/04 00:11:04;;;;;;;2.13;0.55;;;;;;;;;;5017351;28;21799;-56
2021/01/04 00:13:43;;;;;;;3.15;0.60;;;;;;;;;;4997729;28;20044;-53
2021/01/04 00:16:18;;;;;;;1.50;0.45;;;;;;;;;;5031216;28;20037;-51
2021/01/04 00:18:46;;;;;;;2.00;0.40;;;;;;;;;;5014448;28;20683;-54
2021/01/04 00:21:16;;;;;;;2.67;0.50;;;;;;;;;;5016573;28;20038;-54
2021/01/04 00:23:48;;;;;;;3.30;0.57;;;;;;;;;;5019583;28;20164;-54
2021/01/04 00:26:23;;;;;;;1.92;0.50;;;;;;;;;;5019308;28;20097;-53
2021/01/04 00:28:50;;;;;;;2.75;0.55;;;;;;;;;;5017042;28;20608;-52
2021/01/04 00:31:21;;;;;;;2.13;0.60;;;;;;;;;;5019747;28;20068;-51
2021/01/04 00:33:49;;;;;;;2.13;0.57;;;;;;;;;;5017812;28;20037;-55
2021/01/04 00:36:26;;;;;;;2.60;1.13;;;;;;;;;;5020052;28;20045;-53
2021/01/04 00:39:07;;;;;;;2.25;0.63;;;;;;;;;;5016885;28;20037;-55
2021/01/04 00:41:59;;;;;;;2.80;0.60;;;;;;;;;;5019495;28;20097;-56
2021/01/04 00:44:34;;;;;;;5.70;0.60;;;;;;;;;;5000616;28;20049;-58
2021/01/04 00:47:07;;;;;;;2.08;0.60;;;;;;;;;;5020765;28;20049;-52
2021/01/04 00:49:34;;;;;;;2.60;0.50;;;;;;;;;;5019419;28;20080;-54
2021/01/04 00:52:05;;;;;;;1.27;0.47;;;;;;;;;;5021808;28;21338;-56
2021/01/04 00:54:50;;;;;;;4.50;0.60;;;;;;;;;;5021054;28;20048;-57
2021/01/04 00:57:34;;;;;;;5.63;0.60;;;;;;;;;;5022006;28;20880;-56
2021/01/04 01:00:09;;;;;;;2.90;0.65;;;;;;;;;;5025802;28;21294;-55
2021/01/04 01:02:53;;;;;;;1.65;0.60;;;;;;;;;;5021680;28;20059;-56
2021/01/04 01:05:34;;;;;;;2.58;0.52;;;;;;;;;;5022192;28;20038;-54
2021/01/04 01:08:21;;;;;;;1.42;0.47;;;;;;;;;;5020729;28;20073;-55
2021/01/04 01:10:50;;;;;;;1.38;0.40;;;;;;;;;;5016496;28;20046;-55
2021/01/04 01:13:21;;;;;;;1.88;0.63;;;;;;;;;;5017198;28;20041;-55
2021/01/04 01:16:05;;;;;;;1.65;0.50;;;;;;;;;;5019028;28;20041;-54
2021/01/04 01:18:31;;;;;;;1.88;0.50;;;;;;;;;;5021588;28;20093;-54
2021/01/04 01:20:57;;;;;;;3.60;0.70;;;;;;;;;;5023991;28;20094;-54
2021/01/04 01:23:24;;;;;;;4.50;0.70;;;;;;;;;;5033528;28;20041;-52
2021/01/04 01:26:02;;;;;;;3.28;0.73;;;;;;;;;;5033385;28;20121;-56
2021/01/04 01:28:41;;;;;;;3.17;0.98;;;;;;;;;;5023079;28;20077;-53
2021/01/04 01:31:19;;;;;;;3.70;1.00;;;;;;;;;;5024953;28;20138;-53
2021/01/04 01:34:00;;;;;;;3.47;1.30;;;;;;;;;;5023275;28;20041;-53
2021/01/04 01:36:31;;;;;;;3.42;0.80;;;;;;;;;;5025659;28;20041;-55
2021/01/04 01:38:57;;;;;;;2.90;0.80;;;;;;;;;;5024020;28;20419;-55
2021/01/04 01:41:29;;;;;;;2.70;0.60;;;;;;;;;;5024566;28;20045;-56
2021/01/04 01:44:13;;;;;;;2.30;0.60;;;;;;;;;;5033991;28;20124;-51
2021/01/04 01:46:50;;;;;;;2.08;0.57;;;;;;;;;;5027493;28;20049;-55
2021/01/04 01:49:16;;;;;;;7.47;2.00;;;;;;;;;;5025067;28;20052;-53
2021/01/04 01:51:45;;;;;;;3.35;0.70;;;;;;;;;;5025565;28;20043;-54
2021/01/04 01:54:11;;;;;;;2.15;0.70;;;;;;;;;;5024176;28;20053;-52
2021/01/04 01:56:49;;;;;;;2.60;0.60;;;;;;;;;;5027001;28;20034;-49
2021/01/04 01:59:23;;;;;;;1.33;0.50;;;;;;;;;;5025739;28;20085;-50
2021/01/04 02:02:05;;;;;;;1.73;0.57;;;;;;;;;;5029874;28;20033;-53
2021/01/04 02:04:43;;;;;;;2.42;0.57;;;;;;;;;;5027909;28;21372;-52
2021/01/04 02:07:24;;;;;;;2.00;0.75;;;;;;;;;;5033728;28;20052;-54
2021/01/04 02:10:06;;;;;;;5.10;1.00;;;;;;;;;;5031169;28;20046;-53
2021/01/04 02:12:31;;;;;;;4.35;1.13;;;;;;;;;;5042844;28;20045;-51
2021/01/04 02:15:10;;;;;;;4.30;1.20;;;;;;;;;;5028563;28;20084;-54
2021/01/04 02:17:35;;;;;;;3.20;1.05;;;;;;;;;;5023472;28;20042;-53
2021/01/04 02:20:08;;;;;;;6.90;0.90;;;;;;;;;;5019662;28;20034;-53
2021/01/04 02:22:52;;;;;;;5.13;0.80;;;;;;;;;;5020794;28;20042;-50
2021/01/04 02:25:18;;;;;;;3.47;0.90;;;;;;;;;;5021699;28;20949;-51
2021/01/04 02:27:46;;;;;;;3.65;0.80;;;;;;;;;;5022936;28;20041;-53
2021/01/04 02:30:12;;;;;;;5.18;0.88;;;;;;;;;;5023870;28;20101;-54
2021/01/04 02:32:38;;;;;;;3.95;1.05;;;;;;;;;;5021421;28;20477;-52
2021/01/04 02:35:04;;;;;;;2.30;0.55;;;;;;;;;;5021016;28;20050;-54
2021/01/04 02:37:30;;;;;;;4.13;0.70;;;;;;;;;;5017563;28;20037;-50
2021/01/04 02:40:07;;;;;;;2.30;0.65;;;;;;;;;;5020929;28;20526;-52
2021/01/04 02:42:33;;;;;;;5.03;1.20;;;;;;;;;;5026436;28;20041;-50
2021/01/04 02:44:59;;;;;;;6.47;1.00;;;;;;;;;;5017898;28;20047;-50
2021/01/04 02:47:34;;;;;;;4.65;1.00;;;;;;;;;;5018566;28;20052;-53
2021/01/04 02:50:09;;;;;;;3.45;1.00;;;;;;;;;;5029218;28;20058;-52
2021/01/04 02:52:38;;;;;;;3.42;1.08;;;;;;;;;;5018509;28;20041;-52
2021/01/04 02:55:08;;;;;;;3.63;1.00;;;;;;;;;;5019336;28;20041;-53
2021/01/04 02:58:06;;;;;;;4.40;0.90;;;;;;;;;;5016829;28;20356;-52
2021/01/04 03:00:35;;;;;;;4.47;1.20;;;;;;;;;;5007754;28;20041;-52
2021/01/04 03:03:02;;;;;;;7.53;1.33;;;;;;;;;;5022876;28;20042;-54
2021/01/04 03:05:28;;;;;;;3.38;0.85;;;;;;;;;;5009157;28;20038;-55
2021/01/04 03:07:59;;;;;;;3.88;1.10;;;;;;;;;;5012835;28;20042;-53
2021/01/04 03:10:30;;;;;;;2.75;0.90;;;;;;;;;;5033092;28;20125;-51
2021/01/04 03:13:02;;;;;;;2.45;0.90;;;;;;;;;;5019246;28;20044;-51
2021/01/04 03:15:47;;;;;;;2.67;0.90;;;;;;;;;;5018653;28;20033;-52
2021/01/04 03:18:31;;;;;;;2.30;0.60;;;;;;;;;;5017196;28;20041;-53
2021/01/04 03:20:57;;;;;;;2.17;0.60;;;;;;;;;;5017288;28;20038;-54
2021/01/04 03:23:22;;;;;;;2.50;0.57;;;;;;;;;;5013801;28;20054;-51
2021/01/04 03:25:51;;;;;;;2.63;0.60;;;;;;;;;;5017117;28;20048;-52
2021/01/04 03:28:25;;;;;;;3.13;0.60;;;;;;;;;;5015565;28;20050;-50
2021/01/04 03:30:52;;;;;;;4.03;0.77;;;;;;;;;;5015201;28;20044;-54
2021/01/04 03:33:20;;;;;;;3.38;0.60;;;;;;;;;;5014926;28;20057;-52
2021/01/04 03:35:47;;;;;;;2.70;0.65;;;;;;;;;;5017884;28;20067;-54
2021/01/04 03:38:13;;;;;;;2.28;0.60;;;;;;;;;;5032760;28;20049;-55
2021/01/04 03:40:39;;;;;;;3.90;0.60;;;;;;;;;;5036055;28;20093;-51
2021/01/04 03:43:05;;;;;;;3.13;0.80;;;;;;;;;;5035766;28;20072;-52
2021/01/04 03:45:31;;;;;;;2.30;0.60;;;;;;;;;;5035402;28;20036;-50
2021/01/04 03:47:57;;;;;;;2.80;0.80;;;;;;;;;;5031504;28;20045;-53
2021/01/04 03:50:23;;;;;;;2.22;0.60;;;;;;;;;;5030145;28;20481;-53
2021/01/04 03:52:48;;;;;;;2.30;0.55;;;;;;;;;;5017074;28;20042;-56
2021/01/04 03:55:17;;;;;;;3.08;1.13;;;;;;;;;;5023264;28;20033;-54
2021/01/04 03:57:43;;;;;;;3.05;0.60;;;;;;;;;;5026959;28;20041;-53
2021/01/04 04:00:10;;;;;;;2.88;0.80;;;;;;;;;;5030346;28;20096;-51
2021/01/04 04:02:36;;;;;;;2.67;0.70;;;;;;;;;;5020994;28;21204;-52
2021/01/04 04:05:03;;;;;;;2.47;0.60;;;;;;;;;;5016461;28;20037;-49
2021/01/04 04:07:29;;;;;;;2.55;0.47;;;;;;;;;;5023863;28;20049;-50
2021/01/04 04:09:55;;;;;;;1.23;0.50;;;;;;;;;;5018141;28;20469;-53
2021/01/04 04:12:20;;;;;;;5.20;0.70;;;;;;;;;;5014281;28;20037;-51
2021/01/04 04:14:47;;;;;;;2.60;0.80;;;;;;;;;;5018570;28;20605;-51
2021/01/04 04:17:14;;;;;;;5.35;1.80;;;;;;;;;;5017421;28;20037;-52
2021/01/04 04:19:39;;;;;;;4.20;1.13;;;;;;;;;;5031318;28;22874;-50
2021/01/04 04:22:05;;;;;;;11.02;0.95;;;;;;;;;;5015078;28;20060;-54
2021/01/04 04:24:31;;;;;;;6.80;0.80;;;;;;;;;;5018662;28;20064;-49
2021/01/04 04:26:57;;;;;;;3.25;1.00;;;;;;;;;;5015473;28;20038;-49
2021/01/04 04:29:23;;;;;;;4.63;1.20;;;;;;;;;;5022877;28;20053;-49
2021/01/04 04:31:49;;;;;;;9.20;1.45;;;;;;;;;;5015560;28;20065;-51
2021/01/04 04:34:15;;;;;;;9.63;1.90;;;;;;;;;;5017387;28;20069;-53
2021/01/04 04:36:42;;;;;;;8.75;1.65;;;;;;;;;;5016345;28;20145;-51
2021/01/04 04:39:09;;;;;;;7.15;1.50;;;;;;;;;;5014325;28;20034;-55
2021/01/04 04:41:39;;;;;;;4.72;1.70;;;;;;;;;;5016160;28;20065;-53
2021/01/04 04:44:31;;;;;;;2.72;0.60;;;;;;;;;;5016614;28;20052;-50
2021/01/04 04:47:02;;;;;;;1.50;0.43;;;;;;;;;;5023568;28;20100;-51
2021/01/04 04:49:47;;;;;;;3.75;1.17;;;;;;;;;;5015000;28;20106;-51
2021/01/04 04:52:22;;;;;;;2.97;1.00;;;;;;;;;;5014551;28;20054;-52
2021/01/04 04:55:06;;;;;;;2.45;0.70;;;;;;;;;;5015112;28;20046;-51
2021/01/04 04:57:41;;;;;;;5.03;1.20;;;;;;;;;;5033049;28;20037;-51
2021/01/04 05:00:21;;;;;;;5.72;1.60;;;;;;;;;;5020406;28;20131;-50
2021/01/04 05:02:59;;;;;;;5.15;1.40;;;;;;;;;;5020776;28;20430;-54
2021/01/04 05:05:36;;;;;;;4.45;1.00;;;;;;;;;;5023036;28;20129;-54
2021/01/04 05:08:25;;;;;;;9.85;1.08;;;;;;;;;;5027176;28;20262;-51
2021/01/04 05:10:52;;;;;;;3.25;0.80;;;;;;;;;;5000399;28;20045;-50
2021/01/04 05:13:23;;;;;;;3.38;0.98;;;;;;;;;;5032109;28;20184;-50
2021/01/04 05:15:57;;;;;;;2.85;0.60;;;;;;;;;;5021297;28;20042;-54
2021/01/04 05:18:46;;;;;;;2.53;0.70;;;;;;;;;;5020843;28;20045;-51
2021/01/04 05:21:21;;;;;;;3.65;0.60;;;;;;;;;;5021279;28;20083;-53
2021/01/04 05:23:53;;;;;;;2.25;0.60;;;;;;;;;;5032749;28;20049;-53
2021/01/04 05:26:37;;;;;;;2.42;0.52;;;;;;;;;;5041438;28;20044;-54
2021/01/04 05:29:23;;;;;;;2.25;0.60;;;;;;;;;;5042777;28;20049;-54
2021/01/04 05:32:00;;;;;;;2.95;0.60;;;;;;;;;;5018946;28;20046;-53
2021/01/04 05:34:35;;;;;;;3.30;0.60;;;;;;;;;;5028017;28;20648;-52
2021/01/04 05:37:09;;;;;;;1.63;0.50;;;;;;;;;;5021836;28;20038;-54
2021/01/04 05:39:34;;;;;;;;;;;;;;;;;;5019832;28;20247;-54
2021/01/04 05:42:19;;;;;;;2.80;0.60;;;;;;;;;;5022938;28;19927;-55
2021/01/04 05:45:00;;;;;;;2.53;0.60;;;;;;;;;;5020203;28;20049;-53
2021/01/04 05:47:26;;;;;;;2.45;0.50;;;;;;;;;;5021672;28;20073;-50
2021/01/04 05:49:54;;;;;;;2.08;0.60;;;;;;;;;;5021094;28;20053;-54
2021/01/04 05:52:20;;;;;;;2.58;0.50;;;;;;;;;;5017719;28;20045;-54
2021/01/04 05:54:47;;;;;;;3.50;1.17;;;;;;;;;;5020557;28;20049;-50
2021/01/04 05:57:14;;;;;;;2.25;0.60;;;;;;;;;;5021848;28;20042;-53
2021/01/04 05:59:50;;;;;;;4.13;0.43;;;;;;;;;;5035017;28;20046;-53
2021/01/04 06:02:35;;;;;;;2.08;0.50;;;;;;;;;;5021871;28;20057;-51
2021/01/04 06:05:08;;;;;;;3.15;0.50;;;;;;;;;;5026146;28;20050;-53
2021/01/04 06:07:37;;;;;;;3.63;0.70;;;;;;;;;;5020335;28;20119;-53
2021/01/04 06:10:04;;;;;;;2.00;0.60;;;;;;;;;;5028182;28;20106;-52
2021/01/04 06:12:35;;;;;;;4.38;0.70;;;;;;;;;;5020041;28;20069;-53
2021/01/04 06:15:02;;;;;;;1.70;0.50;;;;;;;;;;5019981;28;20038;-53
2021/01/04 06:17:28;;;;;;;4.70;0.60;;;;;;;;;;5020466;28;20033;-51
2021/01/04 06:19:54;;;;;;;1.35;0.50;;;;;;;;;;5021339;28;20049;-54
2021/01/04 06:22:27;;;;;;;1.80;0.50;;;;;;;;;;5018247;28;20057;-52
2021/01/04 06:24:58;;;;;;;1.73;0.55;;;;;;;;;;5024584;28;20330;-50
2021/01/04 06:27:43;;;;;;;3.38;0.50;;;;;;;;;;5022972;28;20046;-53
2021/01/04 06:30:25;;;;;;;1.65;0.47;;;;;;;;;;5019645;28;20049;-52
2021/01/04 06:32:51;;;;;;;1.20;0.50;;;;;;;;;;5017944;28;20045;-52
2021/01/04 06:35:20;;;;;;;2.25;1.20;;;;;;;;;;5030120;28;20041;-50
2021/01/04 06:37:46;;;;;;;1.13;0.40;;;;;;;;;;5020956;28;20117;-50
2021/01/04 06:40:18;;;;;;;3.00;0.85;;;;;;;;;;5019548;28;20087;-55
2021/01/04 06:42:44;;;;;;;2.20;0.60;;;;;;;;;;5033376;28;20143;-53
2021/01/04 06:45:16;;;;;;;1.58;0.50;;;;;;;;;;5027635;28;20045;-53
2021/01/04 06:47:42;;;;;;;1.83;0.85;;;;;;;;;;5020852;28;20041;-51
2021/01/04 06:50:11;;;;;;;1.98;0.50;;;;;;;;;;5029656;28;20049;-52
2021/01/04 06:52:46;;;;;;;2.20;0.40;;;;;;;;;;5028040;28;20099;-54
2021/01/04 06:55:24;;;;;;;0.93;0.35;;;;;;;;;;5021874;28;20069;-54
2021/01/04 06:57:53;;;;;;;1.15;0.40;;;;;;;;;;5022717;28;20054;-53
2021/01/04 07:00:25;;;;;;;0.77;0.30;;;;;;;;;;5022965;28;20124;-55
2021/01/04 07:02:50;;;;;;;1.73;0.50;;;;;;;;;;5021601;28;20057;-55
2021/01/04 07:05:25;;;;;;;1.88;0.50;;;;;;;;;;5021147;28;20049;-52
2021/01/04 07:08:02;;;;;;;2.90;0.40;;;;;;;;;;5027280;28;20048;-55
2021/01/04 07:10:28;;;;;;;0.68;0.38;;;;;;;;;;5041429;28;20045;-54
2021/01/04 07:12:57;;;;;;;1.38;0.40;;;;;;;;;;5034246;28;20060;-52
2021/01/04 07:15:30;;;;;;;1.55;0.45;;;;;;;;;;5019258;28;20038;-53
2021/01/04 07:18:05;;;;;;;1.85;0.60;;;;;;;;;;5019316;28;20068;-54
2021/01/04 07:20:42;;;;;;;2.50;0.40;;;;;;;;;;5017878;28;20041;-55
2021/01/04 07:23:26;;;;;;;1.83;0.40;;;;;;;;;;5017939;28;20046;-55
2021/01/04 07:26:18;;;;;;;0.85;0.40;;;;;;;;;;5017516;28;20212;-55
2021/01/04 07:28:49;;;;;;;1.38;0.32;;;;;;;;;;5035413;28;20053;-52
2021/01/04 07:31:15;;;;;;;1.23;0.40;;;;;;;;;;5031882;28;20064;-51
2021/01/04 07:33:46;;;;;;;1.10;0.68;;;;;;;;;;5015271;28;20045;-50
2021/01/04 07:36:21;;;;;;;0.80;0.38;;;;;;;;;;5019001;28;20061;-54
2021/01/04 07:38:53;;;;;;;1.05;0.40;;;;;;;;;;5018540;28;20458;-54
2021/01/04 07:41:37;;;;;;;1.65;0.30;;;;;;;;;;5017851;28;20065;-51
2021/01/04 07:44:35;;;;;;;1.30;0.30;;;;;;;;;;5018013;28;20049;-52
2021/01/04 07:47:04;;;;;;;1.00;0.35;;;;;;;;;;5006495;28;20038;-54
2021/01/04 07:49:39;;;;;;;0.35;0.30;;;;;;;;;;5020270;28;20075;-55
2021/01/04 07:52:11;;;;;;;1.38;0.40;;;;;;;;;;5024005;28;20776;-52
2021/01/04 07:54:59;;;;;;;1.00;0.40;;;;;;;;;;5019807;28;20101;-51
2021/01/04 07:57:44;;;;;;;0.68;0.40;;;;;;;;;;5009495;28;20089;-51
2021/01/04 08:00:21;;;;;;;0.70;0.30;;;;;;;;;;5014861;28;20037;-55
2021/01/04 08:03:17;;;;;;;1.67;0.40;;;;;;;;;;5013719;28;20046;-52
2021/01/04 08:06:01;;;;;;;0.45;0.30;;;;;;;;;;5002257;28;20046;-54
2021/01/04 08:08:30;;;;;;;0.93;0.38;;;;;;;;;;5014329;28;21423;-53
2021/01/04 08:11:14;;;;;;;0.35;0.30;;;;;;;;;;5015158;28;20046;-52
2021/01/04 08:13:58;;;;;;;2.60;0.50;;;;;;;;;;5014273;28;20046;-55
2021/01/04 08:16:30;;;;;;;3.47;0.50;;;;;;;;;;5015556;28;20119;-54
2021/01/04 08:18:57;;;;;;;2.65;0.52;;;;;;;;;;5016493;28;20453;-55
2021/01/04 08:21:38;;;;;;;1.80;0.57;;;;;;;;;;5014657;28;20037;-56
2021/01/04 08:24:12;;;;;;;1.23;0.40;;;;;;;;;;5014792;28;20066;-55
2021/01/04 08:26:41;;;;;;;1.27;0.40;;;;;;;;;;5014562;28;20076;-54
2021/01/04 08:29:18;;;;;;;2.30;0.40;;;;;;;;;;5018673;28;20867;-52
2021/01/04 08:31:47;;;;;;;3.90;0.43;;;;;;;;;;5024204;28;20045;-54
2021/01/04 08:34:21;;;;;;;0.82;0.30;;;;;;;;;;5030236;28;20052;-55
2021/01/04 08:36:48;;;;;;;0.80;0.32;;;;;;;;;;5023678;28;20034;-54
2021/01/04 08:39:20;;;;;;;0.65;0.32;;;;;;;;;;5036475;28;20117;-54
2021/01/04 08:41:49;;;;;;;0.38;0.30;;;;;;;;;;5024452;28;20465;-51
2021/01/04 08:44:17;;;;;;;0.55;0.32;;;;;;;;;;5029080;28;20042;-55
2021/01/04 08:46:44;;;;;;;0.82;0.40;;;;;;;;;;5027455;28;20041;-55
2021/01/04 08:49:16;;;;;;;0.50;0.20;;;;;;;;;;5025315;28;20042;-54
2021/01/04 08:51:43;;;;;;;0.43;0.30;;;;;;;;;;5025278;28;20056;-54
2021/01/04 08:54:11;;;;;;;0.90;0.38;;;;;;;;;;5025984;28;20036;-54
2021/01/04 08:56:37;;;;;;;0.43;0.30;;;;;;;;;;5034453;28;20068;-54
2021/01/04 08:59:20;;;;;;;0.50;0.30;;;;;;;;;;5026543;28;20037;-55
2021/01/04 09:01:48;;;;;;;0.82;0.38;;;;;;;;;;5027939;28;20041;-54
2021/01/04 09:04:28;;;;;;;1.33;0.40;;;;;;;;;;5028191;28;20042;-54
2021/01/04 09:07:06;;;;;;;1.25;0.40;;;;;;;;;;5026130;28;20057;-53
2021/01/04 09:09:35;;;;;;;1.17;0.40;;;;;;;;;;5028417;28;20045;-55
2021/01/04 09:12:06;;;;;;;0.63;0.40;;;;;;;;;;5025659;28;20049;-53
2021/01/04 09:14:37;;;;;;;0.43;0.30;;;;;;;;;;5026616;28;20041;-53
2021/01/04 09:17:38;;;;;;;2.25;0.50;;;;;;;;;;5026101;28;20034;-56
2021/01/04 09:20:07;;;;;;;0.73;0.32;;;;;;;;;;4979340;28;20046;-56
2021/01/04 09:22:33;;;;;;;0.98;0.40;;;;;;;;;;5022625;28;20921;-53
2021/01/04 09:24:59;;;;;;;1.02;0.35;;;;;;;;;;5012594;28;20068;-52
2021/01/04 09:27:30;;;;;;;0.35;0.30;;;;;;;;;;5024813;28;20056;-55
2021/01/04 09:29:58;;;;;;;1.63;0.50;;;;;;;;;;5028086;28;20072;-53
2021/01/04 09:32:35;;;;;;;0.98;0.40;;;;;;;;;;5025454;28;20068;-55
2021/01/04 09:35:03;;;;;;;1.33;0.40;;;;;;;;;;5033391;28;20129;-54
2021/01/04 09:37:29;;;;;;;0.52;0.30;;;;;;;;;;5025099;28;20161;-56
2021/01/04 09:40:05;;;;;;;1.38;0.50;;;;;;;;;;5031377;28;20119;-54
2021/01/04 09:42:31;;;;;;;1.92;0.40;;;;;;;;;;5026343;28;20042;-52
2021/01/04 09:45:07;;;;;;;2.40;0.30;;;;;;;;;;5023330;28;20049;-54
2021/01/04 09:47:36;;;;;;;0.25;0.25;;;;;;;;;;5023056;28;20030;-53
2021/01/04 09:50:05;;;;;;;1.38;0.43;;;;;;;;;;5021999;28;20060;-54
2021/01/04 09:52:35;;;;;;;0.68;0.30;;;;;;;;;;5022512;28;20038;-59
2021/01/04 09:55:08;;;;;;;0.50;0.30;;;;;;;;;;5022595;28;20069;-59
2021/01/04 09:57:35;;;;;;;0.47;0.30;;;;;;;;;;5022881;28;20061;-58
2021/01/04 10:00:01;;;;;;;0.47;0.30;;;;;;;;;;5025557;28;20069;-60
2021/01/04 10:02:28;;;;;;;2.72;0.40;;;;;;;;;;5024398;28;20057;-57
2021/01/04 10:05:03;;;;;;;0.75;0.30;;;;;;;;;;5023655;28;21603;-58
2021/01/04 10:07:29;;;;;;;1.33;0.40;;;;;;;;;;5025373;28;20048;-58
2021/01/04 10:09:55;;;;;;;0.40;0.30;;;;;;;;;;5023790;28;20100;-58
2021/01/04 10:12:23;;;;;;;1.02;0.30;;;;;;;;;;5022608;28;20132;-58
2021/01/04 10:14:53;;;;;;;0.70;0.30;;;;;;;;;;5024092;28;20057;-58
2021/01/04 10:17:22;;;;;;;1.02;0.38;;;;;;;;;;5023444;28;20057;-58
2021/01/04 10:19:57;;;;;;;0.80;0.30;;;;;;;;;;5034171;28;20042;-58
2021/01/04 10:22:29;;;;;;;0.30;0.30;;;;;;;;;;5023797;28;20037;-59
2021/01/04 10:24:57;;;;;;;1.38;0.30;;;;;;;;;;5025127;28;20130;-59
2021/01/04 10:27:25;;;;;;;2.17;0.30;;;;;;;;;;5024505;28;20052;-59
2021/01/04 10:29:55;;;;;;;0.38;0.28;;;;;;;;;;5027969;28;20132;-59
2021/01/04 10:32:26;;;;;;;1.02;0.40;;;;;;;;;;5033964;28;20067;-59
2021/01/04 10:34:53;;;;;;;0.55;0.30;;;;;;;;;;5021927;28;20037;-58
2021/01/04 10:37:19;;;;;;;0.47;0.30;;;;;;;;;;5023426;28;20041;-59
2021/01/04 10:39:45;;;;;;;1.63;0.40;;;;;;;;;;5022706;28;20061;-59
2021/01/04 10:42:18;;;;;;;0.77;0.30;;;;;;;;;;5022952;28;20118;-58
2021/01/04 10:44:44;;;;;;;0.77;0.50;;;;;;;;;;5020865;28;20056;-57
2021/01/04 10:47:19;;;;;;;1.55;0.30;;;;;;;;;;5024160;28;20050;-58
2021/01/04 10:49:45;;;;;;;0.50;0.30;;;;;;;;;;5023467;28;20121;-59
2021/01/04 10:52:22;;;;;;;0.50;0.30;;;;;;;;;;5022846;28;20096;-59
2021/01/04 10:54:48;;;;;;;0.80;0.32;;;;;;;;;;5023106;28;20052;-58
2021/01/04 10:57:33;;;;;;;1.23;0.40;;;;;;;;;;5024266;28;20038;-59
2021/01/04 11:00:03;;;;;;;0.25;0.20;;;;;;;;;;5041881;28;20037;-59
2021/01/04 11:02:48;;;;;;;0.43;0.30;;;;;;;;;;5042681;28;20044;-58
2021/01/04 11:05:15;;;;;;;0.40;0.30;;;;;;;;;;5044771;28;20532;-59
2021/01/04 11:07:41;;;;;;;1.42;0.40;;;;;;;;;;5042975;28;20100;-58
2021/01/04 11:10:29;;;;;;;0.65;0.30;;;;;;;;;;5045074;28;20130;-58
2021/01/04 11:12:56;;;;;;;0.47;0.30;;;;;;;;;;5042214;28;20039;-59
2021/01/04 11:15:23;;;;;;;0.57;0.30;;;;;;;;;;5043769;28;20084;-58
2021/01/04 11:18:07;;;;;;;0.85;0.32;;;;;;;;;;5041993;28;20031;-59
2021/01/04 11:20:36;;;;;;;1.73;0.40;;;;;;;;;;5041689;28;20041;-59
2021/01/04 11:23:04;;;;;;;0.75;0.30;;;;;;;;;;5041982;28;20063;-58
2021/01/04 11:25:31;;;;;;;0.98;0.40;;;;;;;;;;5044087;28;20048;-58
2021/01/04 11:27:56;;;;;;;3.05;0.40;;;;;;;;;;5043138;28;20038;-59
2021/01/04 11:30:23;;;;;;;0.68;0.30;;;;;;;;;;5042573;28;20048;-59
2021/01/04 11:32:49;;;;;;;0.50;0.30;;;;;;;;;;5044311;28;20045;-59
2021/01/04 11:35:15;;;;;;;0.68;0.32;;;;;;;;;;5040964;28;20037;-58
2021/01/04 11:37:41;;;;;;;1.23;0.40;;;;;;;;;;5040668;28;20069;-58
2021/01/04 11:40:09;;;;;;;1.05;0.30;;;;;;;;;;5040002;28;20036;-59
2021/01/04 11:42:35;;;;;;;1.25;0.40;;;;;;;;;;5041312;28;20047;-58
2021/01/04 11:45:03;;;;;;;0.85;0.30;;;;;;;;;;5041528;28;20064;-58
2021/01/04 11:47:29;;;;;;;0.73;0.30;;;;;;;;;;5039282;28;20040;-58
2021/01/04 11:49:55;;;;;;;0.65;0.30;;;;;;;;;;5041402;28;20049;-58
2021/01/04 11:52:21;;;;;;;0.70;0.30;;;;;;;;;;5039647;28;20099;-59
2021/01/04 11:54:47;;;;;;;0.65;0.32;;;;;;;;;;5042327;28;20048;-59
2021/01/04 11:57:13;;;;;;;0.47;0.30;;;;;;;;;;5039117;28;20037;-58
2021/01/04 11:59:39;;;;;;;0.68;0.30;;;;;;;;;;5039231;28;20045;-58
2021/01/04 12:02:05;;;;;;;0.50;0.30;;;;;;;;;;5040344;28;20037;-58
2021/01/04 12:04:31;;;;;;;1.00;0.35;;;;;;;;;;5041168;28;20044;-57
2021/01/04 12:06:56;;;;;;;0.40;0.30;;;;;;;;;;5042180;28;20156;-57
2021/01/04 12:09:22;;;;;;;0.73;0.30;;;;;;;;;;5040583;28;20082;-57
2021/01/04 12:11:48;;;;;;;1.05;0.40;;;;;;;;;;5041775;28;20049;-59
2021/01/04 12:14:15;;;;;;;1.15;0.40;;;;;;;;;;5041305;28;20041;-58
2021/01/04 12:16:41;;;;;;;3.75;0.40;;;;;;;;;;5038529;28;20044;-58
2021/01/04 12:19:08;;;;;;;0.88;0.40;;;;;;;;;;5041222;28;20041;-59
2021/01/04 12:21:34;;;;;;;0.38;0.30;;;;;;;;;;5042009;28;20038;-58
2021/01/04 12:24:00;;;;;;;2.22;0.40;;;;;;;;;;5039724;28;20740;-58
2021/01/04 12:26:27;;;;;;;0.43;0.30;;;;;;;;;;5040996;28;20067;-58
2021/01/04 12:28:54;;;;;;;2.20;0.30;;;;;;;;;;5039955;28;20053;-59
2021/01/04 12:31:20;;;;;;;0.88;0.30;;;;;;;;;;5021168;28;20041;-59
2021/01/04 12:33:46;;;;;;;1.27;0.40;;;;;;;;;;5022641;28;20040;-59
2021/01/04 12:36:16;;;;;;;1.67;0.40;;;;;;;;;;5026038;28;20041;-59
2021/01/04 12:38:42;;;;;;;0.50;0.30;;;;;;;;;;5019709;28;20041;-58
2021/01/04 12:41:08;;;;;;;1.80;0.45;;;;;;;;;;5018932;28;20042;-58
2021/01/04 12:43:34;;;;;;;1.92;0.40;;;;;;;;;;5018942;28;20529;-59
2021/01/04 12:46:01;;;;;;;2.90;0.40;;;;;;;;;;5019311;28;20176;-58
2021/01/04 12:48:28;;;;;;;0.90;0.30;;;;;;;;;;5019374;28;20057;-59
2021/01/04 12:50:54;;;;;;;0.90;0.40;;;;;;;;;;5021851;28;20042;-59
2021/01/04 12:53:19;;;;;;;1.52;0.30;;;;;;;;;;5019037;28;20069;-60
2021/01/04 12:55:45;;;;;;;1.05;0.40;;;;;;;;;;5018617;28;20034;-58
2021/01/04 12:58:13;;;;;;;0.65;0.30;;;;;;;;;;5027425;28;20062;-58
2021/01/04 13:00:40;;;;;;;0.65;0.30;;;;;;;;;;5019879;28;20134;-57
2021/01/04 13:03:06;;;;;;;0.85;0.40;;;;;;;;;;5018542;28;20045;-58
2021/01/04 13:05:32;;;;;;;1.75;0.50;;;;;;;;;;5018395;28;20034;-59
2021/01/04 13:07:58;;;;;;;3.95;0.73;;;;;;;;;;5018112;28;20118;-59
2021/01/04 13:10:24;;;;;;;1.83;0.50;;;;;;;;;;5019076;28;20054;-58
2021/01/04 13:12:50;;;;;;;1.85;0.63;;;;;;;;;;5018847;28;20034;-59
2021/01/04 13:15:16;;;;;;;1.65;0.50;;;;;;;;;;5019934;28;20064;-58
2021/01/04 13:17:43;;;;;;;3.95;1.73;;;;;;;;;;5008502;28;20056;-59
2021/01/04 13:20:09;;;;;;;2.80;0.90;;;;;;;;;;5022034;28;20033;-59
2021/01/04 13:22:35;;;;;;;2.15;0.40;;;;;;;;;;5021303;28;20330;-59
2021/01/04 13:25:01;;;;;;;1.17;0.38;;;;;;;;;;5023255;28;20133;-58
2021/01/04 13:27:26;;;;;;;3.25;0.50;;;;;;;;;;5022391;28;20037;-58
2021/01/04 13:29:54;;;;;;;0.60;0.40;;;;;;;;;;5022603;28;20050;-62
2021/01/04 13:32:20;;;;;;;1.80;0.50;;;;;;;;;;5022009;28;20045;-58
2021/01/04 13:34:46;;;;;;;3.30;0.65;;;;;;;;;;5022820;28;20034;-59
2021/01/04 13:37:12;;;;;;;4.13;0.70;;;;;;;;;;5020758;28;20050;-58
2021/01/04 13:39:38;;;;;;;1.50;0.40;;;;;;;;;;5014675;28;20081;-59
2021/01/04 13:42:04;;;;;;;4.07;0.82;;;;;;;;;;5021834;28;20045;-58
2021/01/04 13:44:31;;;;;;;0.80;0.40;;;;;;;;;;5020788;28;20115;-58
2021/01/04 13:46:58;;;;;;;1.40;0.43;;;;;;;;;;5014068;28;20101;-58
2021/01/04 13:49:24;;;;;;;0.70;0.40;;;;;;;;;;5019796;28;22202;-58
2021/01/04 13:51:49;;;;;;;0.98;0.40;;;;;;;;;;5023601;28;20034;-58
2021/01/04 13:54:15;;;;;;;1.27;0.50;;;;;;;;;;5017967;28;20499;-59
2021/01/04 13:56:55;;;;;;;2.85;0.50;;;;;;;;;;5021869;28;20041;-58
2021/01/04 13:59:21;;;;;;;0.90;0.40;;;;;;;;;;5017604;28;20045;-58
2021/01/04 14:01:47;;;;;;;2.17;0.38;;;;;;;;;;5013967;28;20309;-59
2021/01/04 14:04:14;;;;;;;1.50;0.35;;;;;;;;;;5015934;28;20045;-58
2021/01/04 14:06:41;;;;;;;2.00;0.40;;;;;;;;;;5009303;28;20259;-59
2021/01/04 14:09:08;;;;;;;10.27;0.60;;;;;;;;;;5015177;28;20077;-58
2021/01/04 14:11:34;;;;;;;4.97;0.73;;;;;;;;;;5017805;28;20041;-57
2021/01/04 14:14:00;;;;;;;4.22;0.50;;;;;;;;;;5017615;28;20045;-58
2021/01/04 14:16:26;;;;;;;2.00;0.40;;;;;;;;;;5011466;28;20045;-58
2021/01/04 14:18:52;;;;;;;5.05;0.70;;;;;;;;;;5014177;28;20064;-57
2021/01/04 14:21:18;;;;;;;5.70;0.65;;;;;;;;;;5016299;28;20142;-57
2021/01/04 14:23:45;;;;;;;1.80;0.50;;;;;;;;;;5023959;28;20037;-57
2021/01/04 14:26:11;;;;;;;2.70;0.60;;;;;;;;;;5037575;28;20082;-58
2021/01/04 14:28:37;;;;;;;3.22;0.60;;;;;;;;;;5022505;28;20045;-59
2021/01/04 14:31:03;;;;;;;3.78;0.70;;;;;;;;;;5020388;28;20048;-60
2021/01/04 14:33:29;;;;;;;2.45;0.60;;;;;;;;;;5021006;28;20037;-57
2021/01/04 14:35:54;;;;;;;5.13;0.90;;;;;;;;;;5020517;28;20048;-59
2021/01/04 14:38:20;;;;;;;5.80;1.00;;;;;;;;;;5019591;28;20072;-60
2021/01/04 14:40:47;;;;;;;5.05;0.85;;;;;;;;;;5023995;28;20041;-58
2021/01/04 14:43:13;;;;;;;6.40;1.00;;;;;;;;;;5020212;28;20057;-59
2021/01/04 14:45:41;;;;;;;3.70;0.70;;;;;;;;;;5014378;28;20096;-59
2021/01/04 14:48:07;;;;;;;4.28;0.70;;;;;;;;;;5015795;28;20057;-58
2021/01/04 14:50:34;;;;;;;5.88;1.00;;;;;;;;;;5016473;28;20046;-59
2021/01/04 14:53:00;;;;;;;10.15;0.98;;;;;;;;;;5014651;28;20072;-57
2021/01/04 14:55:26;;;;;;;4.22;0.75;;;;;;;;;;5013812;28;20126;-58
2021/01/04 14:57:52;;;;;;;5.82;0.82;;;;;;;;;;5016672;28;20050;-58
2021/01/04 15:00:18;;;;;;;3.03;0.80;;;;;;;;;;5015811;28;20044;-58
2021/01/04 15:02:44;;;;;;;4.63;0.93;;;;;;;;;;5018498;28;20049;-58
2021/01/04 15:05:10;;;;;;;3.63;0.88;;;;;;;;;;5019873;28;20073;-58